Terminal Aerodrome Forecast
Issued by NWS Louisville, KY

Home | Current Version | Previous Version | Text Only | Print | Product List | Glossary On
Versions: 1 2 3 4 5 6 7 8 9 10 11 12 13 14 15 16 17 18
000
FTUS43 KLMK 250500
TAFSDF
TAF
KSDF 250520Z 2506/2612 18010KT P6SM VCSH SCT050 BKN080
      TEMPO 2508/2510 VRB15G25KT 3SM -TSRA BR BKN030CB
     FM251000 22012KT P6SM VCSH BKN025
     FM251400 28014G20KT P6SM BKN025
     FM251800 30015G22KT P6SM SCT040
     FM260000 VRB05KT P6SM SKC=

USA.gov is the U.S. government's official web portal to all federal, state and local government web resources and services.